sensor_id;sensor_type;location;lat;lon;timestamp;P1;durP1;ratioP1;P2;durP2;ratioP2
37701;SDS011;23548;51.196;6.838;2023-05-07T00:00:02;9.45;;;7.80;;
37701;SDS011;23548;51.196;6.838;2023-05-07T00:02:32;10.35;;;7.72;;
37701;SDS011;23548;51.196;6.838;2023-05-07T00:04:58;10.77;;;7.35;;
37701;SDS011;23548;51.196;6.838;2023-05-07T00:07:23;8.63;;;7.75;;
37701;SDS011;23548;51.196;6.838;2023-05-07T00:09:49;11.45;;;7.70;;
37701;SDS011;23548;51.196;6.838;2023-05-07T00:12:15;11.70;;;7.50;;
37701;SDS011;23548;51.196;6.838;2023-05-07T00:14:41;11.68;;;7.80;;
37701;SDS011;23548;51.196;6.838;2023-05-07T00:17:07;9.57;;;7.15;;
37701;SDS011;23548;51.196;6.838;2023-05-07T00:19:33;12.90;;;8.32;;
37701;SDS011;23548;51.196;6.838;2023-05-07T00:21:58;9.18;;;7.60;;
37701;SDS011;23548;51.196;6.838;2023-05-07T00:24:24;16.17;;;8.45;;
37701;SDS011;23548;51.196;6.838;2023-05-07T00:26:50;9.70;;;8.70;;
37701;SDS011;23548;51.196;6.838;2023-05-07T00:29:20;11.57;;;8.70;;
37701;SDS011;23548;51.196;6.838;2023-05-07T00:31:45;10.98;;;8.48;;
37701;SDS011;23548;51.196;6.838;2023-05-07T00:34:11;11.18;;;7.72;;
37701;SDS011;23548;51.196;6.838;2023-05-07T00:36:37;9.93;;;8.73;;
37701;SDS011;23548;51.196;6.838;2023-05-07T00:39:03;13.15;;;8.73;;
37701;SDS011;23548;51.196;6.838;2023-05-07T00:41:29;11.27;;;7.78;;
37701;SDS011;23548;51.196;6.838;2023-05-07T00:43:58;17.33;;;8.57;;
37701;SDS011;23548;51.196;6.838;2023-05-07T00:46:24;9.70;;;8.65;;
37701;SDS011;23548;51.196;6.838;2023-05-07T00:48:50;11.50;;;8.65;;
37701;SDS011;23548;51.196;6.838;2023-05-07T00:51:17;11.15;;;8.57;;
37701;SDS011;23548;51.196;6.838;2023-05-07T00:53:43;10.82;;;8.40;;
37701;SDS011;23548;51.196;6.838;2023-05-07T00:56:09;13.50;;;9.43;;
37701;SDS011;23548;51.196;6.838;2023-05-07T00:58:36;11.43;;;8.05;;
37701;SDS011;23548;51.196;6.838;2023-05-07T01:01:02;15.63;;;8.15;;
37701;SDS011;23548;51.196;6.838;2023-05-07T01:03:28;10.98;;;8.38;;
37701;SDS011;23548;51.196;6.838;2023-05-07T01:05:54;11.38;;;8.93;;
37701;SDS011;23548;51.196;6.838;2023-05-07T01:08:24;11.93;;;8.60;;
37701;SDS011;23548;51.196;6.838;2023-05-07T01:10:53;9.27;;;8.27;;
37701;SDS011;23548;51.196;6.838;2023-05-07T01:13:20;10.63;;;8.25;;
37701;SDS011;23548;51.196;6.838;2023-05-07T01:15:46;11.52;;;8.45;;
37701;SDS011;23548;51.196;6.838;2023-05-07T01:18:13;10.60;;;8.43;;
37701;SDS011;23548;51.196;6.838;2023-05-07T01:20:40;13.73;;;8.75;;
37701;SDS011;23548;51.196;6.838;2023-05-07T01:23:06;9.98;;;8.40;;
37701;SDS011;23548;51.196;6.838;2023-05-07T01:25:32;10.85;;;8.52;;
37701;SDS011;23548;51.196;6.838;2023-05-07T01:27:59;13.48;;;9.13;;
37701;SDS011;23548;51.196;6.838;2023-05-07T01:30:26;12.50;;;8.93;;
37701;SDS011;23548;51.196;6.838;2023-05-07T01:32:57;12.52;;;9.23;;
37701;SDS011;23548;51.196;6.838;2023-05-07T01:35:30;11.50;;;8.73;;
37701;SDS011;23548;51.196;6.838;2023-05-07T01:38:01;9.68;;;8.20;;
37701;SDS011;23548;51.196;6.838;2023-05-07T01:40:29;11.75;;;8.77;;
37701;SDS011;23548;51.196;6.838;2023-05-07T01:42:56;10.77;;;8.52;;
37701;SDS011;23548;51.196;6.838;2023-05-07T01:45:22;9.90;;;8.75;;
37701;SDS011;23548;51.196;6.838;2023-05-07T01:47:49;12.57;;;8.95;;
37701;SDS011;23548;51.196;6.838;2023-05-07T01:50:15;10.77;;;8.82;;
37701;SDS011;23548;51.196;6.838;2023-05-07T01:52:43;9.85;;;8.57;;
37701;SDS011;23548;51.196;6.838;2023-05-07T01:55:09;11.85;;;8.35;;
37701;SDS011;23548;51.196;6.838;2023-05-07T01:57:36;9.50;;;7.82;;
37701;SDS011;23548;51.196;6.838;2023-05-07T02:00:02;14.25;;;8.48;;
37701;SDS011;23548;51.196;6.838;2023-05-07T02:02:30;10.35;;;8.75;;
37701;SDS011;23548;51.196;6.838;2023-05-07T02:04:56;11.68;;;9.05;;
37701;SDS011;23548;51.196;6.838;2023-05-07T02:07:22;11.15;;;9.35;;
37701;SDS011;23548;51.196;6.838;2023-05-07T02:09:48;10.15;;;8.93;;
37701;SDS011;23548;51.196;6.838;2023-05-07T02:12:13;12.88;;;9.90;;
37701;SDS011;23548;51.196;6.838;2023-05-07T02:14:39;11.88;;;9.57;;
37701;SDS011;23548;51.196;6.838;2023-05-07T02:17:05;11.48;;;8.73;;
37701;SDS011;23548;51.196;6.838;2023-05-07T02:19:31;10.80;;;8.77;;
37701;SDS011;23548;51.196;6.838;2023-05-07T02:21:57;14.27;;;9.32;;
37701;SDS011;23548;51.196;6.838;2023-05-07T02:24:23;11.25;;;9.50;;
37701;SDS011;23548;51.196;6.838;2023-05-07T02:26:49;12.52;;;8.82;;
37701;SDS011;23548;51.196;6.838;2023-05-07T02:29:15;9.82;;;8.82;;
37701;SDS011;23548;51.196;6.838;2023-05-07T02:31:41;10.80;;;8.95;;
37701;SDS011;23548;51.196;6.838;2023-05-07T02:34:06;15.18;;;9.52;;
37701;SDS011;23548;51.196;6.838;2023-05-07T02:36:32;11.90;;;9.13;;
37701;SDS011;23548;51.196;6.838;2023-05-07T02:38:58;10.05;;;8.40;;
37701;SDS011;23548;51.196;6.838;2023-05-07T02:41:24;11.55;;;8.45;;
37701;SDS011;23548;51.196;6.838;2023-05-07T02:43:49;12.82;;;8.32;;
37701;SDS011;23548;51.196;6.838;2023-05-07T02:46:15;9.57;;;7.90;;
37701;SDS011;23548;51.196;6.838;2023-05-07T02:48:41;9.55;;;7.68;;
37701;SDS011;23548;51.196;6.838;2023-05-07T02:51:08;10.57;;;7.55;;
37701;SDS011;23548;51.196;6.838;2023-05-07T02:53:33;12.13;;;7.82;;
37701;SDS011;23548;51.196;6.838;2023-05-07T02:55:59;15.73;;;7.93;;
37701;SDS011;23548;51.196;6.838;2023-05-07T02:58:26;12.90;;;7.60;;
37701;SDS011;23548;51.196;6.838;2023-05-07T03:00:53;8.60;;;7.63;;
37701;SDS011;23548;51.196;6.838;2023-05-07T03:03:21;12.00;;;7.20;;
37701;SDS011;23548;51.196;6.838;2023-05-07T03:05:47;8.35;;;7.18;;
37701;SDS011;23548;51.196;6.838;2023-05-07T03:08:13;10.80;;;6.43;;
37701;SDS011;23548;51.196;6.838;2023-05-07T03:10:39;7.78;;;6.97;;
37701;SDS011;23548;51.196;6.838;2023-05-07T03:13:05;8.18;;;6.18;;
37701;SDS011;23548;51.196;6.838;2023-05-07T03:15:31;7.88;;;6.38;;
37701;SDS011;23548;51.196;6.838;2023-05-07T03:17:57;7.82;;;6.40;;
37701;SDS011;23548;51.196;6.838;2023-05-07T03:20:23;10.98;;;6.10;;
37701;SDS011;23548;51.196;6.838;2023-05-07T03:22:49;6.82;;;6.15;;
37701;SDS011;23548;51.196;6.838;2023-05-07T03:25:15;6.68;;;6.07;;
37701;SDS011;23548;51.196;6.838;2023-05-07T03:27:40;7.63;;;6.43;;
37701;SDS011;23548;51.196;6.838;2023-05-07T03:30:10;10.88;;;6.28;;
37701;SDS011;23548;51.196;6.838;2023-05-07T03:32:36;7.97;;;6.25;;
37701;SDS011;23548;51.196;6.838;2023-05-07T03:35:02;6.53;;;5.88;;
37701;SDS011;23548;51.196;6.838;2023-05-07T03:37:28;8.20;;;6.45;;
37701;SDS011;23548;51.196;6.838;2023-05-07T03:39:54;10.10;;;6.63;;
37701;SDS011;23548;51.196;6.838;2023-05-07T03:42:19;6.70;;;6.00;;
37701;SDS011;23548;51.196;6.838;2023-05-07T03:44:45;6.25;;;5.65;;
37701;SDS011;23548;51.196;6.838;2023-05-07T03:47:11;6.80;;;5.55;;
37701;SDS011;23548;51.196;6.838;2023-05-07T03:49:38;7.88;;;6.10;;
37701;SDS011;23548;51.196;6.838;2023-05-07T03:52:04;7.10;;;5.55;;
37701;SDS011;23548;51.196;6.838;2023-05-07T03:54:31;9.65;;;5.82;;
37701;SDS011;23548;51.196;6.838;2023-05-07T03:56:57;6.07;;;5.47;;
37701;SDS011;23548;51.196;6.838;2023-05-07T03:59:22;6.82;;;5.53;;
37701;SDS011;23548;51.196;6.838;2023-05-07T04:01:49;7.38;;;5.80;;
37701;SDS011;23548;51.196;6.838;2023-05-07T04:04:15;9.60;;;5.65;;
37701;SDS011;23548;51.196;6.838;2023-05-07T04:06:41;10.07;;;5.47;;
37701;SDS011;23548;51.196;6.838;2023-05-07T04:09:07;7.15;;;5.70;;
37701;SDS011;23548;51.196;6.838;2023-05-07T04:11:32;7.10;;;5.88;;
37701;SDS011;23548;51.196;6.838;2023-05-07T04:13:58;9.88;;;6.05;;
37701;SDS011;23548;51.196;6.838;2023-05-07T04:16:24;8.30;;;5.68;;
37701;SDS011;23548;51.196;6.838;2023-05-07T04:18:50;6.82;;;6.07;;
37701;SDS011;23548;51.196;6.838;2023-05-07T04:21:17;7.03;;;5.88;;
37701;SDS011;23548;51.196;6.838;2023-05-07T04:23:44;10.25;;;5.57;;
37701;SDS011;23548;51.196;6.838;2023-05-07T04:26:11;8.60;;;5.38;;
37701;SDS011;23548;51.196;6.838;2023-05-07T04:28:40;8.57;;;5.22;;
37701;SDS011;23548;51.196;6.838;2023-05-07T04:31:06;7.80;;;4.88;;
37701;SDS011;23548;51.196;6.838;2023-05-07T04:33:32;5.45;;;4.70;;
37701;SDS011;23548;51.196;6.838;2023-05-07T04:35:58;5.30;;;4.50;;
37701;SDS011;23548;51.196;6.838;2023-05-07T04:38:31;5.85;;;4.40;;
37701;SDS011;23548;51.196;6.838;2023-05-07T04:41:02;8.13;;;5.35;;
37701;SDS011;23548;51.196;6.838;2023-05-07T04:43:29;7.25;;;4.25;;
37701;SDS011;23548;51.196;6.838;2023-05-07T04:45:55;5.00;;;4.50;;
37701;SDS011;23548;51.196;6.838;2023-05-07T04:48:21;5.70;;;4.28;;
37701;SDS011;23548;51.196;6.838;2023-05-07T04:50:48;6.95;;;4.07;;
37701;SDS011;23548;51.196;6.838;2023-05-07T04:53:14;5.97;;;4.57;;
37701;SDS011;23548;51.196;6.838;2023-05-07T04:55:40;7.90;;;4.47;;
37701;SDS011;23548;51.196;6.838;2023-05-07T04:58:06;4.55;;;4.15;;
37701;SDS011;23548;51.196;6.838;2023-05-07T05:00:32;6.65;;;4.50;;
37701;SDS011;23548;51.196;6.838;2023-05-07T05:02:58;7.03;;;4.25;;
37701;SDS011;23548;51.196;6.838;2023-05-07T05:05:24;6.15;;;3.78;;
37701;SDS011;23548;51.196;6.838;2023-05-07T05:07:50;8.20;;;4.10;;
37701;SDS011;23548;51.196;6.838;2023-05-07T05:10:17;8.55;;;4.35;;
37701;SDS011;23548;51.196;6.838;2023-05-07T05:12:42;8.15;;;4.45;;
37701;SDS011;23548;51.196;6.838;2023-05-07T05:15:10;6.43;;;4.47;;
37701;SDS011;23548;51.196;6.838;2023-05-07T05:17:37;5.00;;;3.80;;
37701;SDS011;23548;51.196;6.838;2023-05-07T05:20:03;9.65;;;4.60;;
37701;SDS011;23548;51.196;6.838;2023-05-07T05:22:30;6.55;;;4.30;;
37701;SDS011;23548;51.196;6.838;2023-05-07T05:24:58;10.88;;;4.32;;
37701;SDS011;23548;51.196;6.838;2023-05-07T05:27:27;12.88;;;4.07;;
37701;SDS011;23548;51.196;6.838;2023-05-07T05:29:53;7.20;;;3.90;;
37701;SDS011;23548;51.196;6.838;2023-05-07T05:32:19;5.35;;;3.85;;
37701;SDS011;23548;51.196;6.838;2023-05-07T05:34:45;6.55;;;4.30;;
37701;SDS011;23548;51.196;6.838;2023-05-07T05:37:11;7.65;;;4.18;;
37701;SDS011;23548;51.196;6.838;2023-05-07T05:39:37;4.82;;;3.53;;
37701;SDS011;23548;51.196;6.838;2023-05-07T05:42:03;5.97;;;3.88;;
37701;SDS011;23548;51.196;6.838;2023-05-07T05:44:29;14.73;;;8.35;;
37701;SDS011;23548;51.196;6.838;2023-05-07T05:46:55;6.15;;;3.75;;
37701;SDS011;23548;51.196;6.838;2023-05-07T05:49:24;4.55;;;4.05;;
37701;SDS011;23548;51.196;6.838;2023-05-07T05:51:53;5.43;;;3.75;;
37701;SDS011;23548;51.196;6.838;2023-05-07T05:54:18;15.35;;;6.55;;
37701;SDS011;23548;51.196;6.838;2023-05-07T05:56:44;8.00;;;4.50;;
37701;SDS011;23548;51.196;6.838;2023-05-07T05:59:11;5.75;;;3.95;;
37701;SDS011;23548;51.196;6.838;2023-05-07T06:01:37;6.53;;;3.70;;
37701;SDS011;23548;51.196;6.838;2023-05-07T06:04:03;4.32;;;3.90;;
37701;SDS011;23548;51.196;6.838;2023-05-07T06:06:29;4.70;;;3.88;;
37701;SDS011;23548;51.196;6.838;2023-05-07T06:08:56;5.07;;;3.60;;
37701;SDS011;23548;51.196;6.838;2023-05-07T06:11:22;7.05;;;3.60;;
37701;SDS011;23548;51.196;6.838;2023-05-07T06:13:48;6.57;;;3.55;;
37701;SDS011;23548;51.196;6.838;2023-05-07T06:16:14;4.88;;;3.83;;
37701;SDS011;23548;51.196;6.838;2023-05-07T06:18:40;6.95;;;3.70;;
37701;SDS011;23548;51.196;6.838;2023-05-07T06:21:06;3.97;;;3.65;;
37701;SDS011;23548;51.196;6.838;2023-05-07T06:23:31;7.43;;;4.50;;
37701;SDS011;23548;51.196;6.838;2023-05-07T06:25:57;12.93;;;5.07;;
37701;SDS011;23548;51.196;6.838;2023-05-07T06:28:23;5.90;;;4.20;;
37701;SDS011;23548;51.196;6.838;2023-05-07T06:30:48;3.83;;;3.50;;
37701;SDS011;23548;51.196;6.838;2023-05-07T06:33:15;6.85;;;3.58;;
37701;SDS011;23548;51.196;6.838;2023-05-07T06:35:41;4.55;;;3.40;;
37701;SDS011;23548;51.196;6.838;2023-05-07T06:38:06;4.95;;;3.38;;
37701;SDS011;23548;51.196;6.838;2023-05-07T06:40:32;6.80;;;3.90;;
37701;SDS011;23548;51.196;6.838;2023-05-07T06:42:58;5.40;;;3.25;;
37701;SDS011;23548;51.196;6.838;2023-05-07T06:45:23;9.30;;;3.50;;
37701;SDS011;23548;51.196;6.838;2023-05-07T06:47:50;4.90;;;3.30;;
37701;SDS011;23548;51.196;6.838;2023-05-07T06:50:16;6.13;;;3.17;;
37701;SDS011;23548;51.196;6.838;2023-05-07T06:52:42;4.65;;;3.70;;
37701;SDS011;23548;51.196;6.838;2023-05-07T06:55:08;3.53;;;2.90;;
37701;SDS011;23548;51.196;6.838;2023-05-07T06:57:34;3.63;;;3.20;;
37701;SDS011;23548;51.196;6.838;2023-05-07T07:00:00;6.97;;;2.90;;
37701;SDS011;23548;51.196;6.838;2023-05-07T07:02:25;4.97;;;3.10;;
37701;SDS011;23548;51.196;6.838;2023-05-07T07:04:51;6.57;;;3.58;;
37701;SDS011;23548;51.196;6.838;2023-05-07T07:07:17;4.05;;;3.33;;
37701;SDS011;23548;51.196;6.838;2023-05-07T07:09:43;5.70;;;2.67;;
37701;SDS011;23548;51.196;6.838;2023-05-07T07:12:08;4.75;;;2.78;;
37701;SDS011;23548;51.196;6.838;2023-05-07T07:14:34;4.03;;;3.08;;
37701;SDS011;23548;51.196;6.838;2023-05-07T07:17:00;4.13;;;2.40;;
37701;SDS011;23548;51.196;6.838;2023-05-07T07:19:26;4.53;;;2.60;;
37701;SDS011;23548;51.196;6.838;2023-05-07T07:21:52;5.05;;;2.67;;
37701;SDS011;23548;51.196;6.838;2023-05-07T07:24:17;4.75;;;2.53;;
37701;SDS011;23548;51.196;6.838;2023-05-07T07:26:46;7.45;;;2.92;;
37701;SDS011;23548;51.196;6.838;2023-05-07T07:29:12;2.85;;;2.63;;
37701;SDS011;23548;51.196;6.838;2023-05-07T07:31:38;6.38;;;3.05;;
37701;SDS011;23548;51.196;6.838;2023-05-07T07:34:04;3.45;;;2.60;;
37701;SDS011;23548;51.196;6.838;2023-05-07T07:36:30;6.25;;;2.63;;
37701;SDS011;23548;51.196;6.838;2023-05-07T07:38:55;2.83;;;2.45;;
37701;SDS011;23548;51.196;6.838;2023-05-07T07:41:21;3.25;;;2.70;;
37701;SDS011;23548;51.196;6.838;2023-05-07T07:43:47;5.00;;;2.60;;
37701;SDS011;23548;51.196;6.838;2023-05-07T07:46:12;5.85;;;2.30;;
37701;SDS011;23548;51.196;6.838;2023-05-07T07:48:38;3.75;;;2.65;;
37701;SDS011;23548;51.196;6.838;2023-05-07T07:51:04;6.50;;;3.40;;
37701;SDS011;23548;51.196;6.838;2023-05-07T07:53:30;4.97;;;2.60;;
37701;SDS011;23548;51.196;6.838;2023-05-07T07:55:56;2.55;;;2.28;;
37701;SDS011;23548;51.196;6.838;2023-05-07T07:58:21;5.43;;;2.67;;
37701;SDS011;23548;51.196;6.838;2023-05-07T08:00:48;4.70;;;2.40;;
37701;SDS011;23548;51.196;6.838;2023-05-07T08:03:14;4.15;;;2.55;;
37701;SDS011;23548;51.196;6.838;2023-05-07T08:05:41;3.28;;;2.60;;
37701;SDS011;23548;51.196;6.838;2023-05-07T08:08:07;4.75;;;2.70;;
37701;SDS011;23548;51.196;6.838;2023-05-07T08:10:34;4.55;;;2.72;;
37701;SDS011;23548;51.196;6.838;2023-05-07T08:13:00;4.25;;;2.60;;
37701;SDS011;23548;51.196;6.838;2023-05-07T08:15:27;9.20;;;5.22;;
37701;SDS011;23548;51.196;6.838;2023-05-07T08:17:52;5.70;;;3.38;;
37701;SDS011;23548;51.196;6.838;2023-05-07T08:20:18;10.02;;;3.92;;
37701;SDS011;23548;51.196;6.838;2023-05-07T08:22:44;4.03;;;2.90;;
37701;SDS011;23548;51.196;6.838;2023-05-07T08:25:11;3.45;;;2.65;;
37701;SDS011;23548;51.196;6.838;2023-05-07T08:27:36;5.22;;;2.67;;
37701;SDS011;23548;51.196;6.838;2023-05-07T08:30:02;4.10;;;2.67;;
37701;SDS011;23548;51.196;6.838;2023-05-07T08:32:29;2.90;;;2.60;;
37701;SDS011;23548;51.196;6.838;2023-05-07T08:34:55;4.35;;;2.70;;
37701;SDS011;23548;51.196;6.838;2023-05-07T08:37:21;3.20;;;2.88;;
37701;SDS011;23548;51.196;6.838;2023-05-07T08:39:46;3.33;;;2.55;;
37701;SDS011;23548;51.196;6.838;2023-05-07T08:42:12;2.78;;;2.45;;
37701;SDS011;23548;51.196;6.838;2023-05-07T08:44:41;2.85;;;2.40;;
37701;SDS011;23548;51.196;6.838;2023-05-07T08:47:13;4.45;;;2.50;;
37701;SDS011;23548;51.196;6.838;2023-05-07T08:49:39;5.97;;;2.10;;
37701;SDS011;23548;51.196;6.838;2023-05-07T08:52:05;10.05;;;2.30;;
37701;SDS011;23548;51.196;6.838;2023-05-07T08:54:31;9.68;;;5.05;;
37701;SDS011;23548;51.196;6.838;2023-05-07T08:56:57;5.72;;;2.28;;
37701;SDS011;23548;51.196;6.838;2023-05-07T08:59:23;6.25;;;2.70;;
37701;SDS011;23548;51.196;6.838;2023-05-07T09:01:49;4.05;;;2.33;;
37701;SDS011;23548;51.196;6.838;2023-05-07T09:04:15;5.82;;;2.90;;
37701;SDS011;23548;51.196;6.838;2023-05-07T09:06:40;10.43;;;2.60;;
37701;SDS011;23548;51.196;6.838;2023-05-07T09:09:07;4.68;;;2.70;;
37701;SDS011;23548;51.196;6.838;2023-05-07T09:11:33;4.25;;;2.95;;
37701;SDS011;23548;51.196;6.838;2023-05-07T09:13:58;5.70;;;2.40;;
37701;SDS011;23548;51.196;6.838;2023-05-07T09:16:26;3.88;;;2.38;;
37701;SDS011;23548;51.196;6.838;2023-05-07T09:18:54;5.72;;;2.63;;
37701;SDS011;23548;51.196;6.838;2023-05-07T09:21:21;3.47;;;2.42;;
37701;SDS011;23548;51.196;6.838;2023-05-07T09:23:48;5.43;;;2.55;;
37701;SDS011;23548;51.196;6.838;2023-05-07T09:26:17;4.55;;;2.47;;
37701;SDS011;23548;51.196;6.838;2023-05-07T09:28:45;3.35;;;2.33;;
37701;SDS011;23548;51.196;6.838;2023-05-07T09:31:11;3.80;;;2.13;;
37701;SDS011;23548;51.196;6.838;2023-05-07T09:33:38;3.13;;;2.17;;
37701;SDS011;23548;51.196;6.838;2023-05-07T09:36:05;3.70;;;2.30;;
37701;SDS011;23548;51.196;6.838;2023-05-07T09:38:32;7.93;;;2.53;;
37701;SDS011;23548;51.196;6.838;2023-05-07T09:41:05;4.30;;;2.25;;
37701;SDS011;23548;51.196;6.838;2023-05-07T09:43:32;5.65;;;2.53;;
37701;SDS011;23548;51.196;6.838;2023-05-07T09:46:03;3.95;;;2.60;;
37701;SDS011;23548;51.196;6.838;2023-05-07T09:48:39;5.43;;;3.20;;
37701;SDS011;23548;51.196;6.838;2023-05-07T09:51:10;3.95;;;2.40;;
37701;SDS011;23548;51.196;6.838;2023-05-07T09:53:36;4.93;;;3.20;;
37701;SDS011;23548;51.196;6.838;2023-05-07T09:56:03;8.15;;;3.08;;
37701;SDS011;23548;51.196;6.838;2023-05-07T09:58:30;4.57;;;2.83;;
37701;SDS011;23548;51.196;6.838;2023-05-07T10:00:58;3.28;;;2.33;;
37701;SDS011;23548;51.196;6.838;2023-05-07T10:03:25;5.40;;;2.50;;
37701;SDS011;23548;51.196;6.838;2023-05-07T10:05:55;4.45;;;2.08;;
37701;SDS011;23548;51.196;6.838;2023-05-07T10:08:21;4.47;;;1.73;;
37701;SDS011;23548;51.196;6.838;2023-05-07T10:10:47;3.08;;;1.98;;
37701;SDS011;23548;51.196;6.838;2023-05-07T10:13:14;4.00;;;2.00;;
37701;SDS011;23548;51.196;6.838;2023-05-07T10:15:40;3.65;;;1.77;;
37701;SDS011;23548;51.196;6.838;2023-05-07T10:18:06;4.13;;;1.58;;
37701;SDS011;23548;51.196;6.838;2023-05-07T10:20:34;2.05;;;1.60;;
37701;SDS011;23548;51.196;6.838;2023-05-07T10:23:02;4.40;;;1.90;;
37701;SDS011;23548;51.196;6.838;2023-05-07T10:25:31;3.88;;;1.70;;
37701;SDS011;23548;51.196;6.838;2023-05-07T10:27:59;1.70;;;1.30;;
37701;SDS011;23548;51.196;6.838;2023-05-07T10:33:10;3.42;;;2.20;;
37701;SDS011;23548;51.196;6.838;2023-05-07T10:35:40;2.92;;;1.75;;
37701;SDS011;23548;51.196;6.838;2023-05-07T10:38:07;2.30;;;1.80;;
37701;SDS011;23548;51.196;6.838;2023-05-07T10:40:34;2.83;;;2.35;;
37701;SDS011;23548;51.196;6.838;2023-05-07T10:43:01;4.22;;;1.92;;
37701;SDS011;23548;51.196;6.838;2023-05-07T10:45:29;3.72;;;2.28;;
37701;SDS011;23548;51.196;6.838;2023-05-07T10:50:32;4.55;;;1.75;;
37701;SDS011;23548;51.196;6.838;2023-05-07T10:55:42;2.63;;;1.52;;
37701;SDS011;23548;51.196;6.838;2023-05-07T11:00:46;4.03;;;1.40;;
37701;SDS011;23548;51.196;6.838;2023-05-07T11:03:13;3.72;;;1.50;;
37701;SDS011;23548;51.196;6.838;2023-05-07T11:05:40;1.85;;;1.50;;
37701;SDS011;23548;51.196;6.838;2023-05-07T11:08:07;2.67;;;1.30;;
37701;SDS011;23548;51.196;6.838;2023-05-07T11:13:16;3.60;;;1.40;;
37701;SDS011;23548;51.196;6.838;2023-05-07T11:18:09;3.75;;;1.80;;
37701;SDS011;23548;51.196;6.838;2023-05-07T11:28:39;4.22;;;1.42;;
37701;SDS011;23548;51.196;6.838;2023-05-07T11:31:06;2.05;;;1.75;;
37701;SDS011;23548;51.196;6.838;2023-05-07T11:33:32;3.70;;;1.40;;
37701;SDS011;23548;51.196;6.838;2023-05-07T11:35:59;8.25;;;3.30;;
37701;SDS011;23548;51.196;6.838;2023-05-07T11:38:28;2.72;;;1.63;;
37701;SDS011;23548;51.196;6.838;2023-05-07T11:40:58;3.47;;;1.50;;
37701;SDS011;23548;51.196;6.838;2023-05-07T11:43:29;4.32;;;1.50;;
37701;SDS011;23548;51.196;6.838;2023-05-07T11:46:04;2.20;;;1.60;;
37701;SDS011;23548;51.196;6.838;2023-05-07T11:48:35;2.53;;;1.40;;
37701;SDS011;23548;51.196;6.838;2023-05-07T11:51:02;2.45;;;1.60;;
37701;SDS011;23548;51.196;6.838;2023-05-07T11:53:37;5.00;;;1.70;;
37701;SDS011;23548;51.196;6.838;2023-05-07T11:56:08;2.53;;;1.85;;
37701;SDS011;23548;51.196;6.838;2023-05-07T11:58:34;2.30;;;1.60;;
37701;SDS011;23548;51.196;6.838;2023-05-07T12:01:01;4.72;;;1.70;;
37701;SDS011;23548;51.196;6.838;2023-05-07T12:03:27;2.20;;;1.63;;
37701;SDS011;23548;51.196;6.838;2023-05-07T12:05:53;3.67;;;1.67;;
37701;SDS011;23548;51.196;6.838;2023-05-07T12:08:19;1.65;;;1.50;;
37701;SDS011;23548;51.196;6.838;2023-05-07T12:10:47;4.93;;;2.13;;
37701;SDS011;23548;51.196;6.838;2023-05-07T12:13:17;5.25;;;2.00;;
37701;SDS011;23548;51.196;6.838;2023-05-07T12:15:44;3.60;;;2.05;;
37701;SDS011;23548;51.196;6.838;2023-05-07T12:18:13;2.42;;;1.70;;
37701;SDS011;23548;51.196;6.838;2023-05-07T12:20:39;2.15;;;2.00;;
37701;SDS011;23548;51.196;6.838;2023-05-07T12:23:06;3.70;;;1.60;;
37701;SDS011;23548;51.196;6.838;2023-05-07T12:25:34;3.22;;;1.63;;
37701;SDS011;23548;51.196;6.838;2023-05-07T12:28:01;2.30;;;1.73;;
37701;SDS011;23548;51.196;6.838;2023-05-07T12:30:30;2.45;;;1.73;;
37701;SDS011;23548;51.196;6.838;2023-05-07T12:33:05;4.28;;;1.75;;
37701;SDS011;23548;51.196;6.838;2023-05-07T12:35:31;3.13;;;1.70;;
37701;SDS011;23548;51.196;6.838;2023-05-07T12:38:01;6.10;;;1.58;;
37701;SDS011;23548;51.196;6.838;2023-05-07T12:40:39;3.67;;;1.73;;
37701;SDS011;23548;51.196;6.838;2023-05-07T12:43:06;3.55;;;2.30;;
37701;SDS011;23548;51.196;6.838;2023-05-07T12:45:36;3.53;;;1.70;;
37701;SDS011;23548;51.196;6.838;2023-05-07T12:48:04;6.93;;;1.85;;
37701;SDS011;23548;51.196;6.838;2023-05-07T12:50:33;2.38;;;1.80;;
37701;SDS011;23548;51.196;6.838;2023-05-07T12:52:59;2.95;;;1.95;;
37701;SDS011;23548;51.196;6.838;2023-05-07T12:55:25;5.10;;;2.15;;
37701;SDS011;23548;51.196;6.838;2023-05-07T12:57:51;4.85;;;1.85;;
37701;SDS011;23548;51.196;6.838;2023-05-07T13:00:32;3.50;;;1.60;;
37701;SDS011;23548;51.196;6.838;2023-05-07T13:03:05;4.32;;;1.90;;
37701;SDS011;23548;51.196;6.838;2023-05-07T13:05:31;3.28;;;1.60;;
37701;SDS011;23548;51.196;6.838;2023-05-07T13:07:57;3.60;;;1.80;;
37701;SDS011;23548;51.196;6.838;2023-05-07T13:10:23;3.15;;;2.15;;
37701;SDS011;23548;51.196;6.838;2023-05-07T13:12:50;4.10;;;2.20;;
37701;SDS011;23548;51.196;6.838;2023-05-07T13:15:16;3.47;;;2.00;;
37701;SDS011;23548;51.196;6.838;2023-05-07T13:17:42;3.33;;;1.80;;
37701;SDS011;23548;51.196;6.838;2023-05-07T13:20:11;3.55;;;2.13;;
37701;SDS011;23548;51.196;6.838;2023-05-07T13:22:38;4.13;;;2.60;;
37701;SDS011;23548;51.196;6.838;2023-05-07T13:25:05;6.80;;;1.90;;
37701;SDS011;23548;51.196;6.838;2023-05-07T13:27:31;2.83;;;2.00;;
37701;SDS011;23548;51.196;6.838;2023-05-07T13:29:57;3.35;;;2.35;;
37701;SDS011;23548;51.196;6.838;2023-05-07T13:32:23;5.10;;;2.70;;
37701;SDS011;23548;51.196;6.838;2023-05-07T13:34:48;6.00;;;2.95;;
37701;SDS011;23548;51.196;6.838;2023-05-07T13:37:14;5.75;;;3.03;;
37701;SDS011;23548;51.196;6.838;2023-05-07T13:39:40;11.73;;;3.70;;
37701;SDS011;23548;51.196;6.838;2023-05-07T13:42:06;8.20;;;4.13;;
37701;SDS011;23548;51.196;6.838;2023-05-07T13:44:32;7.25;;;4.00;;
37701;SDS011;23548;51.196;6.838;2023-05-07T13:46:58;7.57;;;3.70;;
37701;SDS011;23548;51.196;6.838;2023-05-07T13:49:23;7.22;;;4.95;;
37701;SDS011;23548;51.196;6.838;2023-05-07T13:51:49;7.30;;;4.70;;
37701;SDS011;23548;51.196;6.838;2023-05-07T13:54:15;7.28;;;4.80;;
37701;SDS011;23548;51.196;6.838;2023-05-07T13:56:41;15.05;;;5.18;;
37701;SDS011;23548;51.196;6.838;2023-05-07T13:59:07;22.60;;;6.50;;
37701;SDS011;23548;51.196;6.838;2023-05-07T14:01:33;81.57;;;12.48;;
37701;SDS011;23548;51.196;6.838;2023-05-07T14:03:59;23.88;;;10.60;;
37701;SDS011;23548;51.196;6.838;2023-05-07T14:06:25;27.45;;;10.20;;
37701;SDS011;23548;51.196;6.838;2023-05-07T14:08:51;17.92;;;9.23;;
37701;SDS011;23548;51.196;6.838;2023-05-07T14:11:17;29.00;;;8.95;;
37701;SDS011;23548;51.196;6.838;2023-05-07T14:13:43;22.50;;;9.52;;
37701;SDS011;23548;51.196;6.838;2023-05-07T14:16:08;18.30;;;7.97;;
37701;SDS011;23548;51.196;6.838;2023-05-07T14:18:34;10.75;;;8.10;;
37701;SDS011;23548;51.196;6.838;2023-05-07T14:21:02;13.30;;;9.32;;
37701;SDS011;23548;51.196;6.838;2023-05-07T14:23:28;21.77;;;10.30;;
37701;SDS011;23548;51.196;6.838;2023-05-07T14:25:53;19.05;;;11.63;;
37701;SDS011;23548;51.196;6.838;2023-05-07T14:28:19;18.65;;;13.13;;
37701;SDS011;23548;51.196;6.838;2023-05-07T14:30:45;19.88;;;14.65;;
37701;SDS011;23548;51.196;6.838;2023-05-07T14:33:11;21.35;;;16.83;;
37701;SDS011;23548;51.196;6.838;2023-05-07T14:35:37;20.42;;;15.48;;
37701;SDS011;23548;51.196;6.838;2023-05-07T14:38:03;24.08;;;16.65;;
37701;SDS011;23548;51.196;6.838;2023-05-07T14:40:28;24.10;;;17.42;;
37701;SDS011;23548;51.196;6.838;2023-05-07T14:42:54;28.60;;;18.10;;
37701;SDS011;23548;51.196;6.838;2023-05-07T14:45:22;24.52;;;18.73;;
37701;SDS011;23548;51.196;6.838;2023-05-07T14:47:48;25.52;;;18.10;;
37701;SDS011;23548;51.196;6.838;2023-05-07T14:50:14;24.55;;;18.75;;
37701;SDS011;23548;51.196;6.838;2023-05-07T14:52:40;22.23;;;16.90;;
37701;SDS011;23548;51.196;6.838;2023-05-07T14:55:05;22.42;;;16.98;;
37701;SDS011;23548;51.196;6.838;2023-05-07T14:57:31;22.40;;;16.13;;
37701;SDS011;23548;51.196;6.838;2023-05-07T15:00:00;21.67;;;15.82;;
37701;SDS011;23548;51.196;6.838;2023-05-07T15:02:29;20.20;;;13.68;;